Time;durP1;ratioP1;P1;durP2;ratioP2;P2;SDS_P1;SDS_P2;PMS_P1;PMS_P2;Temp;Humidity;BMP_temperature;BMP_pressure;BME280_temperature;BME280_humidity;BME280_pressure;Samples;Min_cycle;Max_cycle;Signal;HPM_P1;HPM_P2
2021/08/30 00:00:01;;;;;;;0.82;0.80;;;19.40;91.90;;;;;;5116423;28;20500;-75
2021/08/30 00:02:27;;;;;;;0.80;0.80;;;19.40;92.10;;;;;;5115723;28;20034;-76
2021/08/30 00:04:52;;;;;;;0.57;0.57;;;19.40;92.20;;;;;;5100745;28;20084;-75
2021/08/30 00:07:18;;;;;;;4.30;0.90;;;19.30;92.20;;;;;;5103514;28;20070;-75
2021/08/30 00:09:44;;;;;;;0.70;0.70;;;19.40;92.20;;;;;;5116518;28;20031;-75
2021/08/30 00:12:10;;;;;;;0.50;0.50;;;19.30;92.60;;;;;;5097938;28;20028;-76
2021/08/30 00:14:39;;;;;;;3.28;0.82;;;19.30;92.20;;;;;;5115994;28;20028;-75
2021/08/30 00:17:06;;;;;;;0.90;0.90;;;19.30;92.20;;;;;;5116218;28;20068;-75
2021/08/30 00:19:33;;;;;;;0.85;0.85;;;19.20;92.40;;;;;;5097709;28;20374;-75
2021/08/30 00:22:00;;;;;;;0.70;0.70;;;19.20;92.70;;;;;;5116195;28;20364;-75
2021/08/30 00:24:26;;;;;;;0.88;0.73;;;19.10;93.10;;;;;;5115935;28;20055;-76
2021/08/30 00:26:55;;;;;;;1.23;0.77;;;19.00;93.40;;;;;;5116116;28;20120;-75
2021/08/30 00:29:25;;;;;;;1.33;0.80;;;19.00;93.50;;;;;;5115825;28;20027;-75
2021/08/30 00:31:56;;;;;;;1.00;0.85;;;19.00;93.10;;;;;;5097626;28;20027;-76
2021/08/30 00:34:22;;;;;;;0.88;0.88;;;19.00;92.80;;;;;;5097141;28;20126;-76
2021/08/30 00:36:48;;;;;;;0.90;0.90;;;19.00;92.50;;;;;;5115746;28;20062;-75
2021/08/30 00:39:21;;;;;;;2.58;0.70;;;19.00;92.50;;;;;;5097310;28;20069;-75
2021/08/30 00:41:49;;;;;;;1.83;0.80;;;19.00;93.40;;;;;;5097345;28;20356;-76
2021/08/30 00:44:14;;;;;;;0.70;0.70;;;18.90;93.70;;;;;;5115634;28;20027;-75
2021/08/30 00:46:40;;;;;;;0.70;0.70;;;18.80;93.90;;;;;;5115402;28;20072;-75
2021/08/30 00:49:06;;;;;;;0.70;0.70;;;18.80;93.70;;;;;;5096783;28;20383;-75
2021/08/30 00:51:32;;;;;;;0.90;0.90;;;18.80;93.70;;;;;;5115336;28;20652;-75
2021/08/30 00:53:58;;;;;;;1.20;0.73;;;18.90;93.30;;;;;;5115199;28;20032;-75
2021/08/30 00:56:26;;;;;;;0.60;0.60;;;19.00;93.10;;;;;;5096723;28;20094;-75
2021/08/30 00:58:53;;;;;;;1.00;0.90;;;18.90;93.50;;;;;;5115504;28;20020;-76
2021/08/30 01:01:19;;;;;;;2.20;1.80;;;18.90;93.50;;;;;;5114575;28;20020;-76
2021/08/30 01:03:45;;;;;;;2.45;1.48;;;18.80;93.30;;;;;;5115354;28;20016;-76
2021/08/30 01:06:49;;;;;;;1.42;1.33;;;18.90;93.30;;;;;;5115143;28;20038;-76
2021/08/30 01:09:41;;;;;;;1.20;1.10;;;18.80;93.00;;;;;;5071886;28;20523;-75
2021/08/30 01:12:10;;;;;;;2.10;0.90;;;18.80;93.10;;;;;;5097931;28;20054;-76
2021/08/30 01:14:49;;;;;;;0.93;0.70;;;18.80;93.00;;;;;;5114923;28;20023;-76
2021/08/30 01:17:17;;;;;;;0.73;0.73;;;18.80;92.90;;;;;;5115092;28;20024;-75
2021/08/30 01:19:51;;;;;;;3.42;0.80;;;18.80;93.00;;;;;;5114758;28;20032;-75
2021/08/30 01:22:19;;;;;;;0.88;0.88;;;18.80;93.10;;;;;;5114911;28;20026;-75
2021/08/30 01:24:46;;;;;;;0.70;0.70;;;18.70;93.10;;;;;;5114797;28;20038;-75
2021/08/30 01:27:13;;;;;;;1.02;0.60;;;18.70;93.30;;;;;;5114715;28;20027;-75
2021/08/30 01:30:01;;;;;;;5.05;0.90;;;18.60;93.20;;;;;;5114707;28;20024;-75
2021/08/30 01:32:32;;;;;;;1.30;0.80;;;18.60;93.10;;;;;;5114518;28;20031;-75
2021/08/30 01:35:10;;;;;;;4.20;0.98;;;18.60;93.10;;;;;;5098069;28;20475;-75
2021/08/30 01:37:39;;;;;;;0.80;0.80;;;18.60;93.30;;;;;;5094365;28;20044;-76
2021/08/30 01:40:07;;;;;;;0.85;0.70;;;18.60;93.70;;;;;;5094462;28;20016;-75
2021/08/30 01:42:35;;;;;;;0.65;0.63;;;18.50;93.80;;;;;;5095552;28;20434;-76
2021/08/30 01:45:05;;;;;;;1.92;1.20;;;18.50;93.60;;;;;;5095629;28;20118;-75
2021/08/30 01:47:31;;;;;;;0.93;0.93;;;18.50;93.50;;;;;;5114023;28;20433;-76
2021/08/30 01:50:03;;;;;;;0.80;0.80;;;18.50;93.40;;;;;;5095719;28;20023;-75
2021/08/30 01:52:34;;;;;;;0.80;0.80;;;18.50;93.50;;;;;;5114567;28;20019;-75
2021/08/30 01:55:07;;;;;;;0.70;0.70;;;18.50;93.60;;;;;;5114269;28;20558;-75
2021/08/30 01:57:55;;;;;;;0.85;0.70;;;18.40;93.90;;;;;;5095925;28;20114;-75
2021/08/30 02:03:03;;;;;;;3.50;0.70;;;18.20;94.60;;;;;;5114589;28;20114;-76
2021/08/30 02:05:28;;;;;;;0.95;0.70;;;18.20;95.00;;;;;;5114127;28;20051;-75
2021/08/30 02:07:54;;;;;;;0.70;0.70;;;18.20;94.90;;;;;;5114188;28;20054;-75
2021/08/30 02:10:21;;;;;;;0.73;0.73;;;18.30;94.60;;;;;;5113797;28;20031;-75
2021/08/30 02:12:46;;;;;;;0.90;0.90;;;18.20;94.20;;;;;;5113968;28;20024;-76
2021/08/30 02:15:12;;;;;;;1.00;1.00;;;18.30;94.10;;;;;;5113696;28;20023;-75
2021/08/30 02:18:00;;;;;;;0.88;0.88;;;18.30;93.80;;;;;;5113993;28;20050;-75
2021/08/30 02:20:29;;;;;;;0.95;0.93;;;18.40;94.00;;;;;;5113488;28;20061;-75
2021/08/30 02:22:58;;;;;;;1.63;0.70;;;18.30;93.90;;;;;;5113864;28;20103;-75
2021/08/30 02:25:25;;;;;;;1.00;0.90;;;18.30;93.80;;;;;;5113666;28;20081;-75
2021/08/30 02:27:54;;;;;;;0.60;0.60;;;18.30;94.00;;;;;;5113769;28;20478;-75
2021/08/30 02:30:37;;;;;;;1.02;0.93;;;18.30;94.20;;;;;;5113201;28;20100;-75
2021/08/30 02:33:08;;;;;;;0.80;0.80;;;18.30;94.10;;;;;;5102745;28;20020;-75
2021/08/30 02:35:38;;;;;;;0.90;0.90;;;18.30;94.20;;;;;;5095265;28;20497;-75
2021/08/30 02:38:04;;;;;;;1.20;1.10;;;18.30;94.00;;;;;;5113175;28;20058;-75
2021/08/30 02:40:31;;;;;;;3.10;1.02;;;18.30;93.80;;;;;;5095337;28;20053;-75
2021/08/30 02:43:02;;;;;;;0.70;0.70;;;18.30;93.50;;;;;;5095015;28;20376;-75
2021/08/30 02:45:29;;;;;;;2.53;0.70;;;18.40;93.50;;;;;;5113340;28;20027;-76
2021/08/30 02:47:58;;;;;;;0.80;0.80;;;18.40;93.80;;;;;;5113315;28;20547;-75
2021/08/30 02:50:25;;;;;;;0.77;0.70;;;18.40;93.70;;;;;;5113470;28;20023;-76
2021/08/30 02:52:53;;;;;;;0.70;0.70;;;18.50;93.70;;;;;;5113600;28;20102;-76
2021/08/30 02:55:21;;;;;;;1.08;0.75;;;18.50;93.90;;;;;;5113083;28;20073;-75
2021/08/30 02:57:50;;;;;;;1.60;0.85;;;18.50;93.90;;;;;;5094946;28;20027;-75
2021/08/30 03:00:17;;;;;;;0.60;0.60;;;18.40;93.90;;;;;;5113155;28;20055;-76
2021/08/30 03:02:45;;;;;;;0.70;0.70;;;18.40;94.20;;;;;;5113276;28;20053;-75
2021/08/30 03:05:12;;;;;;;0.82;0.82;;;18.40;94.40;;;;;;5094957;28;20024;-76
2021/08/30 03:07:39;;;;;;;0.90;0.80;;;18.40;94.50;;;;;;5074613;28;20387;-76
2021/08/30 03:10:06;;;;;;;0.80;0.80;;;18.40;94.40;;;;;;5092780;28;20046;-76
2021/08/30 03:12:39;;;;;;;0.60;0.60;;;18.30;94.20;;;;;;5092879;28;20103;-76
2021/08/30 03:15:08;;;;;;;0.90;0.88;;;18.30;94.30;;;;;;5074368;28;20027;-76
2021/08/30 03:17:40;;;;;;;1.55;0.70;;;18.20;94.60;;;;;;5092728;28;20016;-75
2021/08/30 03:20:07;;;;;;;1.48;0.80;;;18.10;94.80;;;;;;5092768;28;20032;-76
2021/08/30 03:22:34;;;;;;;0.95;0.95;;;18.10;94.90;;;;;;5092543;28;20115;-76
2021/08/30 03:25:03;;;;;;;0.65;0.65;;;18.10;94.90;;;;;;5092670;28;20489;-76
2021/08/30 03:27:29;;;;;;;0.75;0.75;;;18.10;94.80;;;;;;5097982;28;20149;-76
2021/08/30 03:29:58;;;;;;;1.55;0.80;;;18.00;94.50;;;;;;5112703;28;20031;-76
2021/08/30 03:32:25;;;;;;;0.98;0.98;;;18.00;94.50;;;;;;5112926;28;20118;-75
2021/08/30 03:34:51;;;;;;;0.70;0.70;;;18.00;94.60;;;;;;5112484;28;20596;-75
2021/08/30 03:37:18;;;;;;;0.90;0.90;;;18.00;95.00;;;;;;5094356;28;20146;-75
2021/08/30 03:39:45;;;;;;;0.68;0.68;;;18.00;94.90;;;;;;5112619;28;20020;-75
2021/08/30 03:42:12;;;;;;;0.98;0.70;;;18.00;94.80;;;;;;5094675;28;20034;-76
2021/08/30 03:44:38;;;;;;;0.85;0.70;;;17.90;95.20;;;;;;5094455;28;20024;-75
2021/08/30 03:47:06;;;;;;;0.68;0.68;;;17.90;94.80;;;;;;5112755;28;20073;-76
2021/08/30 03:49:35;;;;;;;1.02;0.73;;;18.00;94.60;;;;;;5094588;28;20054;-76
2021/08/30 03:52:02;;;;;;;0.60;0.60;;;18.00;94.20;;;;;;5112533;28;20036;-76
2021/08/30 03:54:28;;;;;;;0.70;0.70;;;18.00;94.40;;;;;;5112311;28;20110;-76
2021/08/30 03:56:55;;;;;;;0.65;0.55;;;17.90;94.40;;;;;;5112629;28;20023;-76
2021/08/30 03:59:21;;;;;;;1.17;0.77;;;17.90;94.60;;;;;;5112796;28;20026;-76
2021/08/30 04:01:50;;;;;;;0.70;0.55;;;17.90;94.60;;;;;;5112580;28;20054;-76
2021/08/30 04:04:20;;;;;;;2.00;0.95;;;17.90;94.60;;;;;;5112242;28;20011;-76
2021/08/30 04:06:46;;;;;;;0.70;0.70;;;17.80;94.60;;;;;;5112389;28;20055;-76
2021/08/30 04:09:19;;;;;;;0.80;0.80;;;17.90;95.00;;;;;;5115284;28;20482;-76
2021/08/30 04:11:46;;;;;;;0.77;0.70;;;17.80;95.10;;;;;;5116120;28;20027;-76
2021/08/30 04:14:13;;;;;;;0.60;0.60;;;17.80;94.90;;;;;;5116191;28;20020;-76
2021/08/30 04:16:40;;;;;;;1.20;0.80;;;17.80;95.10;;;;;;5116241;28;20028;-76
2021/08/30 04:19:06;;;;;;;1.80;1.05;;;17.80;94.90;;;;;;5116150;28;20102;-76
2021/08/30 04:21:32;;;;;;;0.82;0.80;;;17.80;95.00;;;;;;5097295;28;20115;-76
2021/08/30 04:23:58;;;;;;;1.02;0.90;;;17.80;94.90;;;;;;5097737;28;20024;-75
2021/08/30 04:26:23;;;;;;;0.80;0.80;;;17.70;94.90;;;;;;5116141;28;20524;-75
2021/08/30 04:28:49;;;;;;;0.82;0.82;;;17.80;95.00;;;;;;5116001;28;20121;-76
2021/08/30 04:31:15;;;;;;;2.13;0.70;;;17.80;95.00;;;;;;5114146;28;20028;-76
2021/08/30 04:33:40;;;;;;;1.48;0.60;;;17.60;95.20;;;;;;5115155;28;20027;-75
2021/08/30 04:36:06;;;;;;;0.70;0.70;;;17.50;95.50;;;;;;5115564;28;20128;-76
2021/08/30 04:38:33;;;;;;;2.05;0.65;;;17.50;95.60;;;;;;5097566;28;20444;-75
2021/08/30 04:40:59;;;;;;;2.10;0.57;;;17.40;95.60;;;;;;5115518;28;20027;-76
2021/08/30 04:43:25;;;;;;;0.68;0.68;;;17.40;95.80;;;;;;5115680;28;20031;-75
2021/08/30 04:45:50;;;;;;;1.73;0.90;;;17.40;96.20;;;;;;5115728;28;20034;-75
2021/08/30 04:48:16;;;;;;;1.83;0.80;;;17.30;96.20;;;;;;5115465;28;20020;-75
2021/08/30 04:50:42;;;;;;;2.70;0.80;;;17.20;96.40;;;;;;5114612;28;20154;-76
2021/08/30 04:53:08;;;;;;;1.10;0.80;;;17.10;96.60;;;;;;5097152;28;20077;-75
2021/08/30 04:55:35;;;;;;;1.25;0.80;;;17.20;96.70;;;;;;5096873;28;20031;-75
2021/08/30 04:58:04;;;;;;;0.80;0.80;;;17.20;96.80;;;;;;5097072;28;20467;-76
2021/08/30 05:00:30;;;;;;;1.10;0.98;;;17.20;96.80;;;;;;5114749;28;20018;-75
2021/08/30 05:02:55;;;;;;;0.80;0.80;;;17.20;96.80;;;;;;5114574;28;20015;-75
2021/08/30 05:05:21;;;;;;;1.05;0.90;;;17.30;96.70;;;;;;5114927;28;20036;-75
2021/08/30 05:07:47;;;;;;;0.80;0.80;;;17.20;96.70;;;;;;5114729;28;20035;-75
2021/08/30 05:10:14;;;;;;;0.82;0.82;;;17.20;96.70;;;;;;5115361;28;20039;-75
2021/08/30 05:12:40;;;;;;;0.70;0.70;;;17.20;96.40;;;;;;5115035;28;20019;-75
2021/08/30 05:15:06;;;;;;;1.58;0.80;;;17.20;96.50;;;;;;5085462;28;20040;-76
2021/08/30 05:17:32;;;;;;;1.98;1.00;;;17.20;96.60;;;;;;5093796;28;20475;-75
2021/08/30 05:19:58;;;;;;;0.90;0.80;;;17.10;96.80;;;;;;5107495;28;20031;-75
2021/08/30 05:22:23;;;;;;;0.75;0.75;;;17.10;97.00;;;;;;5114162;28;20034;-75
2021/08/30 05:24:49;;;;;;;0.68;0.68;;;17.00;97.10;;;;;;5113580;28;20028;-75
2021/08/30 05:27:15;;;;;;;1.13;1.02;;;17.00;97.20;;;;;;5113876;28;20107;-75
2021/08/30 05:29:40;;;;;;;0.63;0.63;;;16.90;97.30;;;;;;5113018;28;20609;-75
2021/08/30 05:32:06;;;;;;;1.60;0.95;;;17.00;97.50;;;;;;5114359;28;20024;-76
2021/08/30 05:34:32;;;;;;;1.10;0.93;;;17.00;97.40;;;;;;5096133;28;20028;-76
2021/08/30 05:36:58;;;;;;;1.75;0.90;;;17.00;97.40;;;;;;5114792;28;20030;-76
2021/08/30 05:39:24;;;;;;;0.90;0.90;;;17.10;97.20;;;;;;5114784;28;20027;-76
2021/08/30 05:41:49;;;;;;;1.23;0.68;;;17.00;97.00;;;;;;5114793;28;20030;-76
2021/08/30 05:44:15;;;;;;;0.70;0.70;;;17.10;97.10;;;;;;5114462;28;20022;-75
2021/08/30 05:46:41;;;;;;;0.73;0.73;;;17.20;97.00;;;;;;5114478;28;20035;-76
2021/08/30 05:49:07;;;;;;;0.60;0.60;;;17.30;97.00;;;;;;5114573;28;20024;-76
2021/08/30 05:51:33;;;;;;;0.57;0.57;;;17.30;96.50;;;;;;5114542;28;20023;-76
2021/08/30 05:53:58;;;;;;;1.20;0.88;;;17.40;96.30;;;;;;5114209;28;20028;-76
2021/08/30 05:56:25;;;;;;;1.20;1.10;;;17.50;96.10;;;;;;5114337;28;20020;-75
2021/08/30 05:58:51;;;;;;;1.08;1.02;;;17.60;95.90;;;;;;5112955;28;20122;-76
2021/08/30 06:01:17;;;;;;;0.50;0.50;;;17.70;95.70;;;;;;5097483;28;20039;-77
2021/08/30 06:03:42;;;;;;;1.25;0.90;;;17.70;96.00;;;;;;5093167;28;20035;-76
2021/08/30 06:06:08;;;;;;;1.02;0.52;;;18.10;97.30;;;;;;5110303;28;20378;-75
2021/08/30 06:08:34;;;;;;;1.75;0.77;;;18.10;95.40;;;;;;5110224;28;20091;-75
2021/08/30 06:11:00;;;;;;;0.77;0.77;;;18.10;95.40;;;;;;5110491;28;20111;-75
2021/08/30 06:13:26;;;;;;;0.55;0.55;;;18.00;95.50;;;;;;5109893;28;20603;-76
2021/08/30 06:15:52;;;;;;;0.93;0.70;;;18.10;95.50;;;;;;5110684;28;20114;-75
2021/08/30 06:18:19;;;;;;;0.70;0.70;;;18.10;95.20;;;;;;5110302;28;20047;-76
2021/08/30 06:20:45;;;;;;;2.90;0.80;;;18.20;94.90;;;;;;5111923;28;20091;-75
2021/08/30 06:23:10;;;;;;;0.65;0.65;;;18.20;95.00;;;;;;5113755;28;20098;-75
2021/08/30 06:25:37;;;;;;;0.60;0.60;;;18.30;94.80;;;;;;5113387;28;20195;-76
2021/08/30 06:28:03;;;;;;;0.93;0.70;;;18.40;94.70;;;;;;5095031;28;20011;-75
2021/08/30 06:30:29;;;;;;;1.67;0.90;;;18.40;94.40;;;;;;5113411;28;20042;-75
2021/08/30 06:32:55;;;;;;;1.02;0.60;;;18.40;94.40;;;;;;5112894;28;20034;-75
2021/08/30 06:35:21;;;;;;;0.85;0.80;;;18.40;94.40;;;;;;5113018;28;20114;-75
2021/08/30 06:37:47;;;;;;;1.60;0.57;;;18.50;94.40;;;;;;5112475;28;20050;-75
2021/08/30 06:40:13;;;;;;;2.35;0.90;;;18.60;94.30;;;;;;5094968;28;20020;-75
2021/08/30 06:42:39;;;;;;;1.20;0.52;;;18.60;94.50;;;;;;5113427;28;20588;-75
2021/08/30 06:45:06;;;;;;;0.95;0.95;;;18.70;94.50;;;;;;5113156;28;20050;-75
2021/08/30 06:47:32;;;;;;;0.52;0.50;;;18.70;94.30;;;;;;5113069;28;20051;-75
2021/08/30 06:49:58;;;;;;;0.63;0.63;;;18.80;94.20;;;;;;5112880;28;20020;-75
2021/08/30 06:52:23;;;;;;;2.22;0.68;;;18.90;93.90;;;;;;5094378;28;20027;-75
2021/08/30 06:54:49;;;;;;;4.93;0.70;;;18.90;93.70;;;;;;5106525;28;20527;-75
2021/08/30 06:57:18;;;;;;;2.60;0.90;;;19.00;93.80;;;;;;5078293;28;20371;-75
2021/08/30 06:59:44;;;;;;;1.95;0.77;;;19.10;93.40;;;;;;5104314;28;20027;-75
2021/08/30 07:02:11;;;;;;;1.33;0.52;;;19.10;93.60;;;;;;5107982;28;20023;-76
2021/08/30 07:04:37;;;;;;;0.40;0.40;;;19.20;93.40;;;;;;5106366;28;20034;-75
2021/08/30 07:07:03;;;;;;;0.47;0.47;;;19.30;93.10;;;;;;5088878;28;20036;-75
2021/08/30 07:09:35;;;;;;;1.33;0.60;;;19.30;93.60;;;;;;5106358;28;20020;-76
2021/08/30 07:12:01;;;;;;;0.30;0.30;;;19.40;92.90;;;;;;5108931;28;20058;-76
2021/08/30 07:14:27;;;;;;;1.17;0.38;;;19.50;91.30;;;;;;5106256;28;20035;-76
2021/08/30 07:16:53;;;;;;;2.15;0.50;;;19.50;90.50;;;;;;5106866;28;20035;-76
2021/08/30 07:19:19;;;;;;;0.50;0.50;;;19.60;90.00;;;;;;5107694;28;20047;-76
2021/08/30 07:21:44;;;;;;;0.30;0.30;;;19.70;90.10;;;;;;5108261;28;20062;-76
2021/08/30 07:24:10;;;;;;;0.25;0.25;;;19.70;89.80;;;;;;5107987;28;20023;-76
2021/08/30 07:26:36;;;;;;;1.65;0.50;;;19.90;90.50;;;;;;5111629;28;20023;-76
2021/08/30 07:29:01;;;;;;;1.90;0.55;;;19.90;91.00;;;;;;5108829;28;20141;-77
2021/08/30 07:31:27;;;;;;;0.30;0.30;;;20.00;90.10;;;;;;5089018;28;20475;-76
2021/08/30 07:34:09;;;;;;;0.30;0.30;;;20.10;88.10;;;;;;5110706;28;20028;-76
2021/08/30 07:36:35;;;;;;;0.65;0.40;;;20.10;90.00;;;;;;5110386;28;20019;-76
2021/08/30 07:39:01;;;;;;;0.35;0.35;;;20.10;87.50;;;;;;5111450;28;20540;-76
2021/08/30 07:41:28;;;;;;;0.40;0.38;;;20.20;88.50;;;;;;5105792;28;20341;-76
2021/08/30 07:43:54;;;;;;;0.32;0.32;;;20.20;90.00;;;;;;5100394;28;20016;-76
2021/08/30 07:46:20;;;;;;;4.72;0.52;;;20.30;88.60;;;;;;5113012;28;20090;-76
2021/08/30 07:48:49;;;;;;;3.30;0.65;;;20.40;89.20;;;;;;5108559;28;20028;-76
2021/08/30 07:51:15;;;;;;;11.02;1.00;;;20.50;87.00;;;;;;5111787;28;20058;-76
2021/08/30 07:53:41;;;;;;;1.27;0.47;;;20.50;87.20;;;;;;5106208;28;20071;-76
2021/08/30 07:56:07;;;;;;;0.38;0.38;;;20.60;81.80;;;;;;5109836;28;20360;-76
2021/08/30 07:58:33;;;;;;;0.40;0.40;;;20.60;81.20;;;;;;5102531;28;20111;-76
2021/08/30 08:00:58;;;;;;;0.30;0.30;;;20.60;77.90;;;;;;5093487;28;20459;-76
2021/08/30 08:03:24;;;;;;;4.75;0.90;;;20.60;80.00;;;;;;5110658;28;20022;-76
2021/08/30 08:05:50;;;;;;;0.13;0.13;;;20.60;81.00;;;;;;5114727;28;20062;-76
2021/08/30 08:08:16;;;;;;;0.47;0.40;;;20.70;73.30;;;;;;5094422;28;20039;-76
2021/08/30 08:10:43;;;;;;;0.30;0.30;;;20.70;75.50;;;;;;5109931;28;20031;-76
2021/08/30 08:13:09;;;;;;;3.17;0.68;;;20.70;77.90;;;;;;5078792;28;20101;-76
2021/08/30 08:15:35;;;;;;;1.23;0.60;;;20.90;78.10;;;;;;5114119;28;20501;-76
2021/08/30 08:18:02;;;;;;;2.72;1.67;;;20.80;79.80;;;;;;5114261;28;20483;-76
2021/08/30 08:20:31;;;;;;;1.00;0.80;;;20.80;82.00;;;;;;5092194;28;20372;-76
2021/08/30 08:22:58;;;;;;;0.68;0.68;;;21.00;79.70;;;;;;5094317;28;20019;-76
2021/08/30 08:25:23;;;;;;;0.50;0.50;;;21.00;81.40;;;;;;5114937;28;20027;-76
2021/08/30 08:27:49;;;;;;;0.77;0.77;;;21.00;82.50;;;;;;5114601;28;20051;-76
2021/08/30 08:30:15;;;;;;;1.10;0.70;;;21.10;82.70;;;;;;5113109;28;20035;-76
2021/08/30 08:32:41;;;;;;;2.75;1.10;;;21.20;82.90;;;;;;5104792;28;20482;-76
2021/08/30 08:35:09;;;;;;;0.88;0.70;;;21.10;82.20;;;;;;5099349;28;20023;-76
2021/08/30 08:37:35;;;;;;;0.57;0.57;;;21.20;82.80;;;;;;5092907;28;20040;-76
2021/08/30 08:40:01;;;;;;;7.93;0.90;;;21.10;81.20;;;;;;5093981;28;20028;-76
2021/08/30 08:42:27;;;;;;;3.80;0.60;;;21.20;81.60;;;;;;5093804;28;20016;-76
2021/08/30 08:44:52;;;;;;;0.38;0.38;;;21.30;79.30;;;;;;5085753;28;20082;-76
2021/08/30 08:47:18;;;;;;;0.40;0.40;;;21.30;76.80;;;;;;5092084;28;20590;-76
2021/08/30 08:49:51;;;;;;;6.38;1.08;;;21.30;77.20;;;;;;5092804;28;20075;-76
2021/08/30 08:52:21;;;;;;;2.92;1.20;;;21.30;78.40;;;;;;5093144;28;20016;-76
2021/08/30 08:54:47;;;;;;;5.05;0.80;;;21.40;78.40;;;;;;5091390;28;20050;-76
2021/08/30 08:57:13;;;;;;;4.53;0.77;;;21.40;76.30;;;;;;5085747;28;20020;-76
2021/08/30 08:59:38;;;;;;;0.73;0.40;;;21.40;74.10;;;;;;5093278;28;20103;-76
2021/08/30 09:02:06;;;;;;;0.32;0.32;;;21.40;74.50;;;;;;5085393;28;20103;-76
2021/08/30 09:04:36;;;;;;;0.40;0.40;;;21.50;75.50;;;;;;5089943;28;20016;-76
2021/08/30 09:07:09;;;;;;;0.10;0.10;;;21.50;74.80;;;;;;5087693;28;20093;-76
2021/08/30 09:09:37;;;;;;;0.20;0.20;;;21.60;71.00;;;;;;5087551;28;20060;-76
2021/08/30 09:12:03;;;;;;;0.47;0.30;;;21.60;67.40;;;;;;5089930;28;20035;-76
2021/08/30 09:14:30;;;;;;;0.28;0.28;;;21.60;71.40;;;;;;5088575;28;20606;-76
2021/08/30 09:17:06;;;;;;;1.48;0.20;;;21.50;68.70;;;;;;5083505;28;20028;-76
2021/08/30 09:19:33;;;;;;;0.50;0.50;;;21.60;73.20;;;;;;5085692;28;20027;-75
2021/08/30 09:22:00;;;;;;;0.20;0.20;;;21.70;75.00;;;;;;5088600;28;20324;-76
2021/08/30 09:24:26;;;;;;;0.40;0.40;;;21.70;77.00;;;;;;5089233;28;20032;-76
2021/08/30 09:26:55;;;;;;;0.57;0.50;;;21.70;73.10;;;;;;5092074;28;20076;-75
2021/08/30 09:29:26;;;;;;;0.22;0.22;;;21.80;74.10;;;;;;5091698;28;20703;-74
2021/08/30 09:32:12;;;;;;;0.47;0.47;;;21.80;74.70;;;;;;5093092;28;20043;-74
2021/08/30 09:34:46;;;;;;;0.40;0.40;;;21.90;74.80;;;;;;5081154;28;20060;-74
2021/08/30 09:37:19;;;;;;;0.20;0.20;;;22.00;73.20;;;;;;5084095;28;20550;-74
2021/08/30 09:39:58;;;;;;;0.30;0.30;;;22.10;73.00;;;;;;5094914;28;20023;-74
2021/08/30 09:42:26;;;;;;;0.30;0.30;;;22.10;73.20;;;;;;5085353;28;20471;-75
2021/08/30 09:44:54;;;;;;;1.67;0.45;;;22.10;73.70;;;;;;5095352;28;20485;-74
2021/08/30 09:47:21;;;;;;;0.35;0.35;;;22.10;70.20;;;;;;5110672;28;20103;-75
2021/08/30 09:49:52;;;;;;;0.35;0.30;;;22.10;72.50;;;;;;5092610;28;20038;-75
2021/08/30 09:52:19;;;;;;;0.20;0.20;;;22.10;70.70;;;;;;5092530;28;20344;-75
2021/08/30 09:54:45;;;;;;;0.40;0.40;;;22.30;70.60;;;;;;5112513;28;20019;-75
2021/08/30 09:57:14;;;;;;;3.50;0.50;;;22.20;70.90;;;;;;5099749;28;20095;-75
2021/08/30 09:59:44;;;;;;;0.20;0.20;;;22.20;73.00;;;;;;5109751;28;20023;-75
2021/08/30 10:02:29;;;;;;;0.20;0.20;;;22.30;72.70;;;;;;5104074;28;20020;-75
2021/08/30 10:05:01;;;;;;;0.17;0.17;;;22.40;66.90;;;;;;5085607;28;20558;-75
2021/08/30 10:07:29;;;;;;;0.40;0.40;;;22.40;68.20;;;;;;5089005;28;20028;-75
2021/08/30 10:09:57;;;;;;;0.30;0.22;;;22.40;67.90;;;;;;5102513;28;20028;-75
2021/08/30 10:12:23;;;;;;;0.50;0.50;;;22.40;65.40;;;;;;5109876;28;20020;-75
2021/08/30 10:14:49;;;;;;;0.45;0.30;;;22.40;65.90;;;;;;5099978;28;20432;-75
2021/08/30 10:17:18;;;;;;;0.40;0.40;;;22.40;65.10;;;;;;5110811;28;20100;-75
2021/08/30 10:19:43;;;;;;;0.32;0.32;;;22.50;64.80;;;;;;5098186;28;20024;-75
2021/08/30 10:22:17;;;;;;;0.43;0.43;;;22.50;67.90;;;;;;5111887;28;20030;-75
2021/08/30 10:24:44;;;;;;;0.50;0.38;;;22.60;68.90;;;;;;5102277;28;20103;-75
2021/08/30 10:27:10;;;;;;;0.38;0.30;;;22.70;67.30;;;;;;5088919;28;20523;-75
2021/08/30 10:29:41;;;;;;;0.68;0.47;;;22.90;69.50;;;;;;5105390;28;20092;-75
2021/08/30 10:32:20;;;;;;;0.30;0.30;;;23.00;66.50;;;;;;5111452;28;20020;-76
2021/08/30 10:34:46;;;;;;;0.52;0.50;;;23.00;67.80;;;;;;5093378;28;20494;-75
2021/08/30 10:37:19;;;;;;;1.13;0.70;;;22.90;66.20;;;;;;5100653;28;20095;-75
2021/08/30 10:39:53;;;;;;;5.25;0.50;;;23.00;66.90;;;;;;5107965;28;20093;-75
2021/08/30 10:42:20;;;;;;;0.70;0.70;;;23.10;68.30;;;;;;5104395;28;20429;-75
2021/08/30 10:45:02;;;;;;;0.50;0.50;;;23.10;62.90;;;;;;5092546;28;20084;-75
2021/08/30 10:47:37;;;;;;;0.57;0.45;;;23.00;62.10;;;;;;5110968;28;20501;-75
2021/08/30 10:50:05;;;;;;;0.60;0.60;;;23.00;63.80;;;;;;5110475;28;20031;-75
2021/08/30 10:52:38;;;;;;;0.40;0.40;;;23.10;68.10;;;;;;5103411;28;20047;-75
2021/08/30 10:55:15;;;;;;;0.55;0.55;;;23.20;65.90;;;;;;5089251;28;20490;-75
2021/08/30 10:57:47;;;;;;;2.15;0.80;;;23.30;63.10;;;;;;5111462;28;20024;-75
2021/08/30 11:00:14;;;;;;;1.52;0.40;;;23.40;65.20;;;;;;5085397;28;20034;-75
2021/08/30 11:02:48;;;;;;;0.40;0.40;;;23.40;67.60;;;;;;5099241;28;20016;-75
2021/08/30 11:05:18;;;;;;;0.60;0.57;;;23.60;65.60;;;;;;5109474;28;20055;-74
2021/08/30 11:07:51;;;;;;;0.60;0.55;;;23.70;65.70;;;;;;5103483;28;20034;-75
2021/08/30 11:10:16;;;;;;;0.60;0.57;;;23.90;67.50;;;;;;5110390;28;20051;-75
2021/08/30 11:12:42;;;;;;;1.25;0.55;;;24.00;66.20;;;;;;5093665;28;20055;-75
2021/08/30 11:15:09;;;;;;;0.80;0.57;;;24.00;63.10;;;;;;5110244;28;20031;-75
2021/08/30 11:17:36;;;;;;;0.40;0.40;;;23.90;65.30;;;;;;5109684;28;20028;-75
2021/08/30 11:20:04;;;;;;;0.50;0.50;;;23.90;65.80;;;;;;5103416;28;20024;-75
2021/08/30 11:22:30;;;;;;;0.45;0.45;;;23.80;65.80;;;;;;5102961;28;20023;-75
2021/08/30 11:24:59;;;;;;;0.50;0.50;;;23.90;70.50;;;;;;5112625;28;20034;-75
2021/08/30 11:27:29;;;;;;;2.25;0.70;;;24.00;69.60;;;;;;5110122;28;20102;-75
2021/08/30 11:30:00;;;;;;;5.13;0.90;;;24.10;70.70;;;;;;5114550;28;20020;-75
2021/08/30 11:32:31;;;;;;;5.50;1.10;;;24.20;69.40;;;;;;5108590;28;20039;-75
2021/08/30 11:34:59;;;;;;;0.60;0.60;;;24.20;64.20;;;;;;5113890;28;20026;-75
2021/08/30 11:37:30;;;;;;;4.63;0.85;;;24.20;68.00;;;;;;5113264;28;20032;-75
2021/08/30 11:39:58;;;;;;;0.60;0.60;;;24.30;67.80;;;;;;5110253;28;20070;-75
2021/08/30 11:42:27;;;;;;;0.90;0.90;;;24.30;63.50;;;;;;5091869;28;20020;-75
2021/08/30 11:44:54;;;;;;;1.42;0.85;;;24.20;66.30;;;;;;5112666;28;20023;-75
2021/08/30 11:47:21;;;;;;;0.80;0.80;;;24.40;70.60;;;;;;5101765;28;20539;-75
2021/08/30 11:49:50;;;;;;;0.90;0.90;;;24.40;69.80;;;;;;5107174;28;20032;-75
2021/08/30 11:52:27;;;;;;;3.90;0.80;;;24.50;68.60;;;;;;5113625;28;20118;-75
2021/08/30 11:55:04;;;;;;;0.95;0.90;;;24.50;65.30;;;;;;5113422;28;20028;-75
2021/08/30 11:58:03;;;;;;;2.10;0.75;;;24.50;64.40;;;;;;5113383;28;20019;-75
2021/08/30 12:00:30;;;;;;;1.02;0.93;;;24.60;64.20;;;;;;5079762;28;20070;-75
2021/08/30 12:03:00;;;;;;;3.33;0.65;;;24.60;62.70;;;;;;5113933;28;20027;-75
2021/08/30 12:05:28;;;;;;;1.05;0.63;;;24.50;64.70;;;;;;5108862;28;20036;-75
2021/08/30 12:07:55;;;;;;;1.08;0.52;;;24.50;63.10;;;;;;5112056;28;20031;-75
2021/08/30 12:10:21;;;;;;;1.88;0.68;;;24.50;63.70;;;;;;5113385;28;20080;-75
2021/08/30 12:13:45;;;;;;;1.13;0.80;;;24.70;63.20;;;;;;5110920;28;20088;-75
2021/08/30 12:15:48;;;;;;;0.60;0.55;;;24.80;63.20;;;;;;5087171;28;20028;-75
2021/08/30 12:18:18;;;;;;;0.60;0.60;;;24.90;63.70;;;;;;5104405;28;20028;-75
2021/08/30 12:20:45;;;;;;;1.58;0.50;;;25.00;63.20;;;;;;5107122;28;20740;-75
2021/08/30 12:23:21;;;;;;;2.80;0.50;;;24.90;62.20;;;;;;5113816;28;20019;-75
2021/08/30 12:25:48;;;;;;;1.30;0.63;;;25.00;63.30;;;;;;5094612;28;20482;-75
2021/08/30 12:28:16;;;;;;;1.70;1.10;;;25.00;61.50;;;;;;5091469;28;20016;-75
2021/08/30 12:30:50;;;;;;;2.15;0.85;;;25.00;63.50;;;;;;5113791;28;20049;-76
2021/08/30 12:33:30;;;;;;;2.15;0.82;;;25.10;61.50;;;;;;5113199;28;20073;-75
2021/08/30 12:35:59;;;;;;;0.52;0.52;;;25.00;62.20;;;;;;5099582;28;20016;-75
2021/08/30 12:38:27;;;;;;;1.77;1.08;;;25.00;62.40;;;;;;5102596;28;20110;-75
2021/08/30 12:40:58;;;;;;;0.80;0.80;;;25.00;63.60;;;;;;5113657;28;20019;-75
2021/08/30 12:43:25;;;;;;;2.00;0.82;;;25.10;65.20;;;;;;5106650;28;20020;-76
2021/08/30 12:45:53;;;;;;;5.03;0.65;;;25.20;62.70;;;;;;5103562;28;20020;-75
2021/08/30 12:48:19;;;;;;;1.45;0.70;;;25.30;60.00;;;;;;5107632;28;20023;-76
2021/08/30 12:50:46;;;;;;;0.50;0.50;;;25.20;61.10;;;;;;5113141;28;20423;-75
2021/08/30 12:53:12;;;;;;;0.60;0.60;;;25.30;61.40;;;;;;5111828;28;20032;-75
2021/08/30 12:55:39;;;;;;;1.00;0.70;;;25.30;61.20;;;;;;5113348;28;20096;-75